createdAt,value
2022-07-29T00:02:18.663Z,47.51
2022-07-29T00:04:45.504Z,47.76
2022-07-29T00:07:12.162Z,47.78
2022-07-29T00:09:51.250Z,47.82
2022-07-29T00:12:21.457Z,47.81
2022-07-29T00:14:56.659Z,48.56
2022-07-29T00:17:24.586Z,47.98
2022-07-29T00:19:51.518Z,48.19
2022-07-29T00:22:18.573Z,47.76
2022-07-29T00:24:45.316Z,47.86
2022-07-29T00:27:12.068Z,47.70
2022-07-29T00:29:38.858Z,47.66
2022-07-29T00:32:05.916Z,47.87
2022-07-29T00:34:51.292Z,48.18
2022-07-29T00:37:17.872Z,48.19
2022-07-29T00:39:44.938Z,48.18
2022-07-29T00:42:11.989Z,48.38
2022-07-29T00:44:39.913Z,48.10
2022-07-29T00:47:07.631Z,48.13
2022-07-29T00:49:35.016Z,48.18
2022-07-29T00:52:03.767Z,48.41
2022-07-29T00:54:31.147Z,48.24
2022-07-29T00:56:59.944Z,48.22
2022-07-29T00:59:35.294Z,48.42
2022-07-29T01:02:03.975Z,49.18
2022-07-29T01:04:31.898Z,49.46
2022-07-29T01:06:59.078Z,49.74
2022-07-29T01:09:43.230Z,49.64
2022-07-29T01:12:19.498Z,49.41
2022-07-29T01:14:47.141Z,49.50
2022-07-29T01:17:52.423Z,49.49
2022-07-29T01:20:20.000Z,49.51
2022-07-29T01:23:08.115Z,49.48
2022-07-29T01:25:59.433Z,49.97
2022-07-29T01:28:35.177Z,49.57
2022-07-29T01:31:04.391Z,49.55
2022-07-29T01:33:51.138Z,49.45
2022-07-29T01:36:26.764Z,49.73
2022-07-29T01:39:10.352Z,49.62
2022-07-29T01:41:40.066Z,50.11
2022-07-29T01:44:14.462Z,50.07
2022-07-29T01:46:46.968Z,49.99
2022-07-29T01:49:19.918Z,49.59
2022-07-29T01:51:46.664Z,49.72
2022-07-29T01:54:14.827Z,49.92
2022-07-29T01:56:43.619Z,49.34
2022-07-29T01:59:11.140Z,49.92
2022-07-29T02:01:38.725Z,49.68
2022-07-29T02:04:07.788Z,49.68
2022-07-29T02:06:36.057Z,49.43
2022-07-29T02:09:03.448Z,50.36
2022-07-29T02:11:32.420Z,50.17
2022-07-29T02:14:00.013Z,50.04
2022-07-29T02:16:28.323Z,50.26
2022-07-29T02:18:57.237Z,50.45
2022-07-29T02:21:26.736Z,50.41
2022-07-29T02:23:54.624Z,50.68
2022-07-29T02:26:22.167Z,50.67
2022-07-29T02:28:51.389Z,51.01
2022-07-29T02:31:21.945Z,50.74
2022-07-29T02:33:49.704Z,50.98
2022-07-29T02:36:17.326Z,50.72
2022-07-29T02:38:53.623Z,50.77
2022-07-29T02:41:51.521Z,50.65
2022-07-29T02:44:20.924Z,50.95
2022-07-29T02:46:52.181Z,50.99
2022-07-29T02:49:22.688Z,50.82
2022-07-29T02:51:55.616Z,51.19
2022-07-29T02:54:52.871Z,51.14
2022-07-29T02:57:54.970Z,51.06
2022-07-29T03:00:25.418Z,52.16
2022-07-29T03:02:54.982Z,51.99
2022-07-29T03:05:22.272Z,52.79
2022-07-29T03:07:56.568Z,53.29
2022-07-29T03:10:24.611Z,53.77
2022-07-29T03:12:51.873Z,54.40
2022-07-29T03:15:20.018Z,54.82
2022-07-29T03:17:49.650Z,55.48
2022-07-29T03:20:18.292Z,55.36
2022-07-29T03:22:48.084Z,55.93
2022-07-29T03:25:17.357Z,56.76
2022-07-29T03:27:44.580Z,56.50
2022-07-29T03:30:12.602Z,57.40
2022-07-29T03:32:45.362Z,57.89
2022-07-29T03:35:12.591Z,57.96
2022-07-29T03:37:39.349Z,57.89
2022-07-29T03:40:08.904Z,57.61
2022-07-29T03:42:39.512Z,57.89
2022-07-29T03:45:17.089Z,58.15
2022-07-29T03:47:51.025Z,58.01
2022-07-29T03:50:20.364Z,58.11
2022-07-29T03:52:48.001Z,58.57
2022-07-29T03:55:15.295Z,58.12
2022-07-29T03:57:42.881Z,58.51
2022-07-29T04:00:10.584Z,58.74
2022-07-29T04:02:39.346Z,60.15
2022-07-29T04:05:06.478Z,61.65
2022-07-29T04:07:33.248Z,61.71
2022-07-29T04:10:00.181Z,63.12
2022-07-29T04:12:27.372Z,64.00
2022-07-29T04:14:54.738Z,64.18
2022-07-29T04:17:21.471Z,64.52
2022-07-29T04:19:48.238Z,65.22
2022-07-29T04:22:15.370Z,66.45
2022-07-29T04:24:44.447Z,67.75
2022-07-29T04:27:11.320Z,67.01
2022-07-29T04:29:38.149Z,68.26
2022-07-29T04:32:24.946Z,69.00
2022-07-29T04:34:51.785Z,69.20
2022-07-29T04:37:18.495Z,69.34
2022-07-29T04:39:45.393Z,70.47
2022-07-29T04:42:12.052Z,71.45
2022-07-29T04:44:43.039Z,70.83
2022-07-29T04:47:10.334Z,70.64
2022-07-29T04:49:39.654Z,70.10
2022-07-29T04:52:09.489Z,68.70
2022-07-29T04:54:36.414Z,68.90
2022-07-29T04:57:03.294Z,69.29
2022-07-29T04:59:30.013Z,69.66
2022-07-29T05:01:56.852Z,70.10
2022-07-29T05:04:24.026Z,70.20
2022-07-29T05:06:50.818Z,69.90
2022-07-29T05:09:17.659Z,69.53
2022-07-29T05:11:44.390Z,69.26
2022-07-29T05:14:11.239Z,68.78
2022-07-29T05:16:40.158Z,69.44
2022-07-29T05:19:12.178Z,69.60
2022-07-29T05:21:40.905Z,69.74
2022-07-29T05:24:07.602Z,69.94
2022-07-29T05:26:34.584Z,71.34
2022-07-29T05:29:01.338Z,71.67
2022-07-29T05:31:28.416Z,72.90
2022-07-29T05:33:55.078Z,73.23
2022-07-29T05:36:22.211Z,73.25
2022-07-29T05:38:49.020Z,73.67
2022-07-29T05:41:15.773Z,73.64
2022-07-29T05:43:42.602Z,72.86
2022-07-29T05:46:09.772Z,73.91
2022-07-29T05:48:36.701Z,73.71
2022-07-29T05:51:03.754Z,72.47
2022-07-29T05:53:30.394Z,72.42
2022-07-29T05:55:57.631Z,72.90
2022-07-29T05:58:27.395Z,73.15
2022-07-29T06:00:54.276Z,73.19
2022-07-29T06:03:21.217Z,73.18
2022-07-29T06:05:48.108Z,73.16
2022-07-29T06:08:15.055Z,73.30
2022-07-29T06:10:41.868Z,71.92
2022-07-29T06:13:15.893Z,71.68
2022-07-29T06:15:43.763Z,71.64
2022-07-29T06:18:11.859Z,71.32
2022-07-29T06:20:38.909Z,70.76
2022-07-29T06:23:05.678Z,70.92
2022-07-29T06:25:35.729Z,71.70
2022-07-29T06:28:02.503Z,71.19
2022-07-29T06:30:29.839Z,70.65
2022-07-29T06:32:56.800Z,72.36
2022-07-29T06:35:41.801Z,72.90
2022-07-29T06:38:30.191Z,73.08
2022-07-29T06:41:23.214Z,73.00
2022-07-29T06:43:55.310Z,71.90
2022-07-29T06:46:23.826Z,71.73
2022-07-29T06:48:52.579Z,72.00
2022-07-29T06:51:22.238Z,72.50
2022-07-29T06:53:59.475Z,71.64
2022-07-29T06:56:29.678Z,71.62
2022-07-29T06:58:56.694Z,73.20
2022-07-29T07:01:23.497Z,72.63
2022-07-29T07:03:50.460Z,72.65
2022-07-29T07:06:17.649Z,72.52
2022-07-29T07:08:44.688Z,72.13
2022-07-29T07:11:11.622Z,70.83
2022-07-29T07:13:38.604Z,71.31
2022-07-29T07:16:05.626Z,71.23
2022-07-29T07:18:33.007Z,72.46
2022-07-29T07:20:59.756Z,71.56
2022-07-29T07:23:26.797Z,71.70
2022-07-29T07:25:53.611Z,71.70
2022-07-29T07:28:24.950Z,71.74
2022-07-29T07:30:53.057Z,70.50
2022-07-29T07:33:20.454Z,70.15
2022-07-29T07:35:48.006Z,70.55
2022-07-29T07:38:15.059Z,68.59
2022-07-29T07:40:42.252Z,68.56
2022-07-29T07:43:09.069Z,68.91
2022-07-29T07:45:38.267Z,68.93
2022-07-29T07:48:05.933Z,68.42
2022-07-29T07:50:32.873Z,69.21
2022-07-29T07:52:59.838Z,69.23
2022-07-29T07:55:27.411Z,69.55
2022-07-29T07:57:55.316Z,69.91
2022-07-29T08:00:23.730Z,70.18
2022-07-29T08:02:51.403Z,70.13
2022-07-29T08:05:19.108Z,69.62
2022-07-29T08:07:49.133Z,70.80
2022-07-29T08:10:40.006Z,71.01
2022-07-29T08:13:08.401Z,71.87
2022-07-29T08:15:35.992Z,72.44
2022-07-29T08:18:08.408Z,72.02
2022-07-29T08:20:37.340Z,72.82
2022-07-29T08:23:05.364Z,72.27
2022-07-29T08:25:33.658Z,72.62
2022-07-29T08:28:05.732Z,72.43
2022-07-29T08:30:34.458Z,72.36
2022-07-29T08:33:01.868Z,72.04
2022-07-29T08:35:33.343Z,71.38
2022-07-29T08:38:02.110Z,71.03
2022-07-29T08:40:32.158Z,71.05
2022-07-29T08:43:00.671Z,70.37
2022-07-29T08:45:29.479Z,69.60
2022-07-29T08:47:56.550Z,68.75
2022-07-29T08:50:23.380Z,68.20
2022-07-29T08:52:50.541Z,68.95
2022-07-29T08:55:21.294Z,68.50
2022-07-29T08:57:54.158Z,68.79
2022-07-29T09:00:24.937Z,69.15
2022-07-29T09:02:58.019Z,69.50
2022-07-29T09:05:25.838Z,70.54
2022-07-29T09:07:53.043Z,71.02
2022-07-29T09:10:19.882Z,72.12
2022-07-29T09:12:47.051Z,71.75
2022-07-29T09:15:13.954Z,72.38
2022-07-29T09:17:48.581Z,71.94
2022-07-29T09:20:17.881Z,72.63
2022-07-29T09:22:48.432Z,71.56
2022-07-29T09:25:15.193Z,71.81
2022-07-29T09:27:42.184Z,71.87
2022-07-29T09:30:13.401Z,72.71
2022-07-29T09:32:57.005Z,72.73
2022-07-29T09:35:28.856Z,73.20
2022-07-29T09:37:55.725Z,72.50
2022-07-29T09:40:28.615Z,73.40
2022-07-29T09:43:07.110Z,73.36
2022-07-29T09:45:35.268Z,71.61
2022-07-29T09:48:21.219Z,71.51
2022-07-29T09:50:50.854Z,71.29
2022-07-29T09:53:34.177Z,71.75
2022-07-29T09:56:01.841Z,71.48
2022-07-29T09:58:31.808Z,71.93
2022-07-29T10:00:58.757Z,71.63
2022-07-29T10:03:26.096Z,71.60
2022-07-29T10:06:18.910Z,71.54
2022-07-29T10:08:45.767Z,71.59
2022-07-29T10:11:17.926Z,71.24
2022-07-29T10:13:49.302Z,70.42
2022-07-29T10:16:19.751Z,68.49
2022-07-29T10:18:49.137Z,68.58
2022-07-29T10:21:22.531Z,68.46
2022-07-29T10:24:06.320Z,65.91
2022-07-29T10:26:36.609Z,64.17
2022-07-29T10:29:04.236Z,64.96
2022-07-29T10:32:08.197Z,62.17
2022-07-29T10:35:14.354Z,62.36
2022-07-29T10:38:03.502Z,62.26
2022-07-29T10:41:43.740Z,61.54
2022-07-29T10:44:23.064Z,60.92
2022-07-29T10:46:54.665Z,60.60
2022-07-29T10:49:31.029Z,60.53
2022-07-29T10:52:05.996Z,59.26
2022-07-29T10:54:51.199Z,59.68
2022-07-29T10:57:53.593Z,57.94
2022-07-29T11:00:33.487Z,57.18
2022-07-29T11:03:11.044Z,57.76
2022-07-29T11:05:55.977Z,57.71
2022-07-29T11:08:26.304Z,56.96
2022-07-29T11:11:17.450Z,56.54
2022-07-29T11:13:46.643Z,56.46
2022-07-29T11:16:20.206Z,55.55
2022-07-29T11:19:30.865Z,55.08
2022-07-29T11:21:58.386Z,55.83
2022-07-29T11:24:35.865Z,55.28
2022-07-29T11:27:22.012Z,55.37
2022-07-29T11:30:01.277Z,55.01
2022-07-29T11:32:48.912Z,55.04
2022-07-29T11:35:38.297Z,53.92
2022-07-29T11:38:31.899Z,52.91
2022-07-29T11:41:21.621Z,53.36
2022-07-29T11:43:52.581Z,54.45
2022-07-29T11:46:50.926Z,53.43
2022-07-29T11:49:32.793Z,52.79
2022-07-29T11:52:26.647Z,53.52
2022-07-29T11:54:57.723Z,53.71
2022-07-29T11:57:36.035Z,52.99
2022-07-29T12:00:10.054Z,52.63
2022-07-29T12:02:50.760Z,53.22
2022-07-29T12:05:36.060Z,53.52
2022-07-29T12:08:12.508Z,52.57
2022-07-29T12:10:42.128Z,53.17
2022-07-29T12:13:09.613Z,53.02
2022-07-29T12:15:46.405Z,53.67
2022-07-29T12:18:18.909Z,53.46
2022-07-29T12:20:46.454Z,54.81
2022-07-29T12:23:16.254Z,54.23
2022-07-29T12:25:44.526Z,53.18
2022-07-29T12:28:27.599Z,54.11
2022-07-29T12:30:54.803Z,54.10
2022-07-29T12:33:30.814Z,53.96
2022-07-29T12:36:06.835Z,53.81
2022-07-29T12:38:37.000Z,54.08
2022-07-29T12:41:04.998Z,54.19
2022-07-29T12:43:35.303Z,53.65
2022-07-29T12:46:15.049Z,53.67
2022-07-29T12:48:46.058Z,54.97
2022-07-29T12:51:21.587Z,54.08
2022-07-29T12:54:15.525Z,54.12
2022-07-29T12:56:44.913Z,53.13
2022-07-29T12:59:20.652Z,53.65
2022-07-29T13:01:50.335Z,53.87
2022-07-29T13:04:32.152Z,53.01
2022-07-29T13:07:08.467Z,52.85
2022-07-29T13:09:42.006Z,52.87
2022-07-29T13:12:13.363Z,53.28
2022-07-29T13:14:51.384Z,52.78
2022-07-29T13:17:34.378Z,52.60
2022-07-29T13:20:13.309Z,52.89
2022-07-29T13:22:40.984Z,52.73
2022-07-29T13:25:08.257Z,52.77
2022-07-29T13:27:39.650Z,52.85
2022-07-29T13:30:08.915Z,53.24
2022-07-29T13:32:38.585Z,53.47
2022-07-29T13:35:09.632Z,53.27
2022-07-29T13:37:39.541Z,53.85
2022-07-29T13:40:08.440Z,54.76
2022-07-29T13:42:35.325Z,54.74
2022-07-29T13:45:02.626Z,54.54
2022-07-29T13:47:32.395Z,54.65
2022-07-29T13:50:02.775Z,55.11
2022-07-29T13:52:32.737Z,55.34
2022-07-29T13:54:59.626Z,55.12
2022-07-29T13:57:26.501Z,54.89
2022-07-29T13:59:54.441Z,55.25
2022-07-29T14:02:28.277Z,54.87
2022-07-29T14:04:58.196Z,55.25
2022-07-29T14:07:27.886Z,54.82
2022-07-29T14:10:20.283Z,55.17
2022-07-29T14:12:47.453Z,55.23
2022-07-29T14:15:18.912Z,55.28
2022-07-29T14:17:45.740Z,55.33
2022-07-29T14:20:12.376Z,54.96
2022-07-29T14:22:42.352Z,54.64
2022-07-29T14:27:44.210Z,55.16
2022-07-29T14:30:11.619Z,55.34
2022-07-29T14:32:38.262Z,55.49
2022-07-29T14:35:06.098Z,55.71
2022-07-29T14:37:39.981Z,55.59
2022-07-29T14:40:07.875Z,55.48
2022-07-29T14:42:37.278Z,55.51
2022-07-29T14:45:05.763Z,55.28
2022-07-29T14:47:32.563Z,54.67
2022-07-29T14:49:59.385Z,54.55
2022-07-29T14:52:26.607Z,54.02
2022-07-29T14:54:53.341Z,53.73
2022-07-29T14:57:20.764Z,53.93
2022-07-29T14:59:47.370Z,52.53
2022-07-29T15:02:14.150Z,52.19
2022-07-29T15:04:40.888Z,51.27
2022-07-29T15:07:07.546Z,51.35
2022-07-29T15:09:36.294Z,50.70
2022-07-29T15:12:13.925Z,50.25
2022-07-29T15:14:42.732Z,50.12
2022-07-29T15:17:09.553Z,50.10
2022-07-29T15:19:37.087Z,50.52
2022-07-29T15:22:06.405Z,50.35
2022-07-29T15:24:33.377Z,50.45
2022-07-29T15:27:04.460Z,50.62
2022-07-29T15:29:31.423Z,50.61
2022-07-29T15:31:58.415Z,49.60
2022-07-29T15:34:28.263Z,49.66
2022-07-29T15:36:55.190Z,48.46
2022-07-29T15:39:22.858Z,48.54
2022-07-29T15:41:50.116Z,48.29
2022-07-29T15:44:17.105Z,46.66
2022-07-29T15:47:02.625Z,47.41
2022-07-29T15:49:48.470Z,47.05
2022-07-29T15:52:25.304Z,44.84
2022-07-29T15:54:57.899Z,44.71
2022-07-29T15:57:25.313Z,45.03
2022-07-29T16:03:00.330Z,44.16
2022-07-29T16:05:30.340Z,44.64
2022-07-29T16:07:57.215Z,43.83
2022-07-29T16:10:23.904Z,44.35
2022-07-29T16:12:50.682Z,44.60
2022-07-29T16:15:17.696Z,45.42
2022-07-29T16:17:44.457Z,45.98
2022-07-29T16:20:13.965Z,46.35
2022-07-29T16:22:40.793Z,46.31
2022-07-29T16:25:08.112Z,46.54
2022-07-29T16:27:37.901Z,46.23
2022-07-29T16:30:06.290Z,45.78
2022-07-29T16:32:40.379Z,46.32
2022-07-29T16:35:07.965Z,46.47
2022-07-29T16:37:36.626Z,46.51
2022-07-29T16:40:06.183Z,46.96
2022-07-29T16:42:50.710Z,47.92
2022-07-29T16:45:21.056Z,48.54
2022-07-29T16:47:48.774Z,47.76
2022-07-29T16:50:27.915Z,47.75
2022-07-29T16:53:05.087Z,48.27
2022-07-29T16:55:31.904Z,47.88
2022-07-29T16:57:58.917Z,47.08
2022-07-29T17:00:25.991Z,47.42
2022-07-29T17:02:52.921Z,46.86
2022-07-29T17:05:23.105Z,46.80
2022-07-29T17:07:50.844Z,47.15
2022-07-29T17:10:18.142Z,46.63
2022-07-29T17:12:45.211Z,46.92
2022-07-29T17:15:18.746Z,46.94
2022-07-29T17:17:55.047Z,46.69
2022-07-29T17:20:34.540Z,46.76
2022-07-29T17:23:01.819Z,46.92
2022-07-29T17:25:28.769Z,47.02
2022-07-29T17:28:12.893Z,46.08
2022-07-29T17:30:40.029Z,46.30
2022-07-29T17:33:06.900Z,45.84
2022-07-29T17:35:52.276Z,45.31
2022-07-29T17:38:18.992Z,45.65
2022-07-29T17:40:45.691Z,45.25
2022-07-29T17:43:12.389Z,45.89
2022-07-29T17:45:49.960Z,45.39
2022-07-29T17:48:18.564Z,45.40
2022-07-29T17:50:45.820Z,44.36
2022-07-29T17:53:15.999Z,44.63
2022-07-29T17:55:48.726Z,44.89
2022-07-29T17:58:20.714Z,45.05
2022-07-29T18:00:47.781Z,45.33
2022-07-29T18:03:23.467Z,44.78
2022-07-29T18:05:50.678Z,44.29
2022-07-29T18:08:17.626Z,44.94
2022-07-29T18:10:50.691Z,44.96
2022-07-29T18:13:21.857Z,45.04
2022-07-29T18:15:57.599Z,44.63
2022-07-29T18:18:27.282Z,44.56
2022-07-29T18:20:54.255Z,45.34
2022-07-29T18:23:23.447Z,45.27
2022-07-29T18:25:50.651Z,45.63
2022-07-29T18:28:17.582Z,45.23
2022-07-29T18:30:48.089Z,45.58
2022-07-29T18:33:22.976Z,45.83
2022-07-29T18:36:10.747Z,45.34
2022-07-29T18:38:44.532Z,45.49
2022-07-29T18:41:20.454Z,45.80
2022-07-29T18:43:52.108Z,46.30
2022-07-29T18:46:19.703Z,46.64
2022-07-29T18:48:46.469Z,46.84
2022-07-29T18:51:17.766Z,47.02
2022-07-29T18:54:02.209Z,47.59
2022-07-29T18:56:39.595Z,47.57
2022-07-29T18:59:07.254Z,47.00
2022-07-29T19:01:34.617Z,46.41
2022-07-29T19:04:07.509Z,47.78
2022-07-29T19:06:35.307Z,48.23
2022-07-29T19:09:02.402Z,48.71
2022-07-29T19:11:29.259Z,48.80
2022-07-29T19:13:56.416Z,48.74
2022-07-29T19:16:23.874Z,48.85
2022-07-29T19:18:51.611Z,48.74
2022-07-29T19:21:19.207Z,49.22
2022-07-29T19:24:02.402Z,49.34
2022-07-29T19:26:36.243Z,49.60
2022-07-29T19:29:05.024Z,49.95
2022-07-29T19:31:31.881Z,50.19
2022-07-29T19:33:58.616Z,50.21
2022-07-29T19:36:26.625Z,50.64
2022-07-29T19:38:53.378Z,50.21
2022-07-29T19:41:20.013Z,50.23
2022-07-29T19:43:50.790Z,50.89
2022-07-29T19:46:22.585Z,50.96
2022-07-29T19:48:50.044Z,51.31
2022-07-29T19:51:17.394Z,50.98
2022-07-29T19:53:44.187Z,51.33
2022-07-29T19:56:11.027Z,51.01
2022-07-29T19:58:37.804Z,51.48
2022-07-29T20:01:10.544Z,51.80
2022-07-29T20:03:39.857Z,52.67
2022-07-29T20:06:07.641Z,53.47
2022-07-29T20:08:34.677Z,52.92
2022-07-29T20:11:02.170Z,52.48
2022-07-29T20:13:31.233Z,52.37
2022-07-29T20:15:58.371Z,52.61
2022-07-29T20:18:25.497Z,52.67
2022-07-29T20:20:52.227Z,53.01
2022-07-29T20:23:19.562Z,53.08
2022-07-29T20:25:46.440Z,53.98
2022-07-29T20:28:13.160Z,54.64
2022-07-29T20:30:40.183Z,55.47
2022-07-29T20:33:07.041Z,55.88
2022-07-29T20:35:34.333Z,55.62
2022-07-29T20:38:01.231Z,55.98
2022-07-29T20:40:29.234Z,56.73
2022-07-29T20:42:56.115Z,57.34
2022-07-29T20:45:23.817Z,57.63
2022-07-29T20:47:51.868Z,57.56
2022-07-29T20:50:20.504Z,57.36
2022-07-29T20:52:51.617Z,57.61
2022-07-29T20:55:18.352Z,57.15
2022-07-29T20:57:45.072Z,57.86
2022-07-29T21:00:12.306Z,58.06
2022-07-29T21:02:39.095Z,57.79
2022-07-29T21:05:06.379Z,57.94
2022-07-29T21:07:33.169Z,57.89
2022-07-29T21:09:59.961Z,58.52
2022-07-29T21:12:26.746Z,58.91
2022-07-29T21:14:53.481Z,59.13
2022-07-29T21:17:22.366Z,60.31
2022-07-29T21:19:52.375Z,60.29
2022-07-29T21:22:21.731Z,60.14
2022-07-29T21:24:49.189Z,60.02
2022-07-29T21:27:34.972Z,60.05
2022-07-29T21:30:06.852Z,59.86
2022-07-29T21:32:33.853Z,60.25
2022-07-29T21:35:00.782Z,59.73
2022-07-29T21:37:28.046Z,59.23
2022-07-29T21:39:54.823Z,58.34
2022-07-29T21:42:21.679Z,58.01
2022-07-29T21:44:48.468Z,58.01
2022-07-29T21:47:15.201Z,58.10
2022-07-29T21:49:42.085Z,57.64
2022-07-29T21:52:09.037Z,57.52
2022-07-29T21:54:35.936Z,57.89
2022-07-29T21:57:03.212Z,57.77
2022-07-29T21:59:32.559Z,58.10
2022-07-29T22:02:01.009Z,58.90
2022-07-29T22:04:31.280Z,58.78
2022-07-29T22:06:59.832Z,58.66
2022-07-29T22:09:26.804Z,58.27
2022-07-29T22:11:54.323Z,58.98
2022-07-29T22:14:21.254Z,59.03
2022-07-29T22:16:48.471Z,58.92
2022-07-29T22:19:15.359Z,59.10
2022-07-29T22:21:47.142Z,59.23
2022-07-29T22:24:16.319Z,59.53
2022-07-29T22:26:43.067Z,59.55
2022-07-29T22:29:11.663Z,59.85
2022-07-29T22:31:38.323Z,60.16
2022-07-29T22:34:12.646Z,60.21
2022-07-29T22:36:41.032Z,60.24
2022-07-29T22:39:08.057Z,59.95
2022-07-29T22:41:34.809Z,60.00
2022-07-29T22:44:01.544Z,59.88
2022-07-29T22:46:28.320Z,59.68
2022-07-29T22:48:55.115Z,59.77
2022-07-29T22:51:24.470Z,60.06
2022-07-29T22:53:51.369Z,60.08
2022-07-29T22:56:19.469Z,60.38
2022-07-29T22:58:46.189Z,60.42
2022-07-29T23:01:13.107Z,60.69
2022-07-29T23:03:39.943Z,60.93
2022-07-29T23:06:06.833Z,61.14
2022-07-29T23:08:33.560Z,61.16
2022-07-29T23:11:00.203Z,61.43
2022-07-29T23:13:27.410Z,61.38
2022-07-29T23:15:54.131Z,60.95
2022-07-29T23:18:21.296Z,62.07
2022-07-29T23:20:47.978Z,63.56
2022-07-29T23:23:14.730Z,63.73
2022-07-29T23:25:41.570Z,63.88
2022-07-29T23:28:12.269Z,64.54
2022-07-29T23:30:41.160Z,65.00
2022-07-29T23:33:07.955Z,65.74
2022-07-29T23:35:34.894Z,66.96
2022-07-29T23:38:01.580Z,67.85
2022-07-29T23:40:28.473Z,67.89
2022-07-29T23:42:55.139Z,67.31
2022-07-29T23:45:21.867Z,68.20
2022-07-29T23:47:48.577Z,68.53
2022-07-29T23:50:16.799Z,68.86
2022-07-29T23:52:44.183Z,69.31
2022-07-29T23:55:36.559Z,69.13
2022-07-29T23:57:58.999Z,69.25
